createdAt,value
2018-05-18T00:02:19.872Z,16.90
2018-05-18T00:04:47.466Z,18.33
2018-05-18T00:07:15.082Z,16.47
2018-05-18T00:09:42.669Z,18.53
2018-05-18T00:12:10.234Z,16.70
2018-05-18T00:14:37.828Z,17.03
2018-05-18T00:17:06.160Z,17.73
2018-05-18T00:19:33.757Z,18.63
2018-05-18T00:22:01.354Z,17.03
2018-05-18T00:24:28.956Z,17.13
2018-05-18T00:26:56.524Z,17.97
2018-05-18T00:29:24.155Z,19.33
2018-05-18T00:31:51.730Z,20.43
2018-05-18T00:34:19.287Z,18.57
2018-05-18T00:36:46.901Z,18.63
2018-05-18T00:39:14.468Z,18.63
2018-05-18T00:41:42.116Z,20.40
2018-05-18T00:44:10.503Z,20.60
2018-05-18T00:46:38.144Z,20.07
2018-05-18T00:49:05.754Z,21.03
2018-05-18T00:51:33.312Z,20.23
2018-05-18T00:54:00.911Z,19.80
2018-05-18T00:56:28.468Z,21.70
2018-05-18T00:58:56.050Z,20.63
2018-05-18T01:01:23.870Z,22.90
2018-05-18T01:03:52.188Z,21.93
2018-05-18T01:06:19.788Z,20.30
2018-05-18T01:08:47.385Z,21.00
2018-05-18T01:11:14.943Z,23.53
2018-05-18T01:13:42.545Z,20.63
2018-05-18T01:16:10.110Z,21.27
2018-05-18T01:18:38.471Z,22.17
2018-05-18T01:21:06.041Z,20.97
2018-05-18T01:23:34.420Z,25.80
2018-05-18T01:26:02.136Z,21.13
2018-05-18T01:28:29.732Z,22.73
2018-05-18T01:30:57.331Z,24.50
2018-05-18T01:33:24.941Z,24.87
2018-05-18T01:35:52.500Z,23.87
2018-05-18T01:38:20.112Z,22.47
2018-05-18T01:40:47.672Z,25.33
2018-05-18T01:43:15.232Z,23.07
2018-05-18T01:45:43.592Z,23.67
2018-05-18T01:48:11.921Z,20.87
2018-05-18T01:50:39.578Z,20.13
2018-05-18T01:53:07.160Z,19.57
2018-05-18T01:55:34.768Z,21.23
2018-05-18T01:58:02.352Z,24.00
2018-05-18T02:00:29.927Z,21.63
2018-05-18T02:02:57.520Z,18.83
2018-05-18T02:05:25.165Z,16.60
2018-05-18T02:07:52.732Z,18.63
2018-05-18T02:10:20.344Z,19.30
2018-05-18T02:12:47.946Z,20.07
2018-05-18T02:15:15.509Z,20.37
2018-05-18T02:17:43.107Z,19.23
2018-05-18T02:20:10.693Z,18.93
2018-05-18T02:22:38.304Z,24.17
2018-05-18T02:25:05.873Z,19.03
2018-05-18T02:27:33.438Z,23.87
2018-05-18T02:30:01.037Z,20.43
2018-05-18T02:32:28.609Z,19.27
2018-05-18T02:34:56.213Z,19.20
2018-05-18T02:37:23.857Z,21.00
2018-05-18T02:39:51.456Z,21.63
2018-05-18T02:42:19.020Z,17.90
2018-05-18T02:44:47.452Z,19.90
2018-05-18T02:47:15.016Z,18.23
2018-05-18T02:49:42.640Z,20.13
2018-05-18T02:52:10.195Z,18.90
2018-05-18T02:54:38.653Z,17.47
2018-05-18T02:57:06.252Z,21.13
2018-05-18T02:59:33.809Z,19.33
2018-05-18T03:02:01.424Z,19.60
2018-05-18T03:04:28.992Z,17.43
2018-05-18T03:06:56.554Z,18.33
2018-05-18T03:09:24.153Z,17.27
2018-05-18T03:11:51.756Z,17.20
2018-05-18T03:14:19.322Z,19.17
2018-05-18T03:16:46.924Z,17.37
2018-05-18T03:19:15.249Z,20.17
2018-05-18T03:21:42.840Z,17.20
2018-05-18T03:24:10.463Z,18.13
2018-05-18T03:26:38.073Z,17.57
2018-05-18T03:29:06.404Z,17.57
2018-05-18T03:31:33.961Z,15.93
2018-05-18T03:34:01.604Z,17.27
2018-05-18T03:36:29.170Z,17.93
2018-05-18T03:38:56.765Z,19.93
2018-05-18T03:41:24.336Z,19.20
2018-05-18T03:43:51.962Z,19.87
2018-05-18T03:46:19.527Z,17.33
2018-05-18T03:48:47.141Z,19.30
2018-05-18T03:51:15.532Z,16.90
2018-05-18T03:53:43.892Z,20.07
2018-05-18T03:56:11.498Z,17.90
2018-05-18T03:58:39.062Z,20.47
2018-05-18T04:01:06.663Z,18.73
2018-05-18T04:03:45.953Z,18.13
2018-05-18T04:06:25.315Z,22.90
2018-05-18T04:08:52.878Z,19.03
2018-05-18T04:11:20.479Z,19.20
2018-05-18T04:13:48.802Z,20.30
2018-05-18T04:16:16.412Z,19.70
2018-05-18T04:18:43.980Z,21.27
2018-05-18T04:21:11.584Z,22.60
2018-05-18T04:23:39.153Z,23.17
2018-05-18T04:26:06.755Z,22.23
2018-05-18T04:28:35.086Z,21.33
2018-05-18T04:31:02.742Z,21.67
2018-05-18T04:33:30.299Z,23.57
2018-05-18T04:35:57.856Z,24.50
2018-05-18T04:38:25.458Z,19.67
2018-05-18T04:40:53.036Z,20.97
2018-05-18T04:43:21.502Z,22.80
2018-05-18T04:45:49.800Z,22.20
2018-05-18T04:48:18.142Z,22.50
2018-05-18T04:50:45.710Z,18.60
2018-05-18T04:53:13.317Z,19.00
2018-05-18T04:55:40.918Z,21.57
2018-05-18T04:58:08.483Z,22.37
2018-05-18T05:00:36.094Z,24.30
2018-05-18T05:03:04.428Z,26.07
2018-05-18T05:05:32.044Z,24.83
2018-05-18T05:07:59.624Z,23.93
2018-05-18T05:10:27.260Z,23.17
2018-05-18T05:12:54.845Z,26.17
2018-05-18T05:15:22.407Z,24.53
2018-05-18T05:17:50.025Z,25.23
2018-05-18T05:20:17.609Z,25.17
2018-05-18T05:22:45.968Z,23.90
2018-05-18T05:25:14.297Z,24.20
2018-05-18T05:27:41.904Z,23.50
2018-05-18T05:30:09.473Z,22.10
2018-05-18T05:32:37.044Z,24.27
2018-05-18T05:35:05.407Z,24.30
2018-05-18T05:37:33.776Z,22.40
2018-05-18T05:40:01.389Z,23.13
2018-05-18T05:42:28.947Z,23.53
2018-05-18T05:44:56.540Z,25.33
2018-05-18T05:47:24.103Z,25.47
2018-05-18T05:49:51.700Z,26.47
2018-05-18T05:52:20.036Z,27.70
2018-05-18T05:54:47.647Z,25.77
2018-05-18T05:57:15.250Z,29.73
2018-05-18T05:59:42.845Z,26.63
2018-05-18T06:02:10.462Z,27.23
2018-05-18T06:04:38.028Z,26.43
2018-05-18T06:07:05.598Z,23.37
2018-05-18T06:09:33.203Z,26.03
2018-05-18T06:12:01.541Z,25.93
2018-05-18T06:14:29.148Z,26.30
2018-05-18T06:16:56.721Z,25.87
2018-05-18T06:19:24.418Z,24.90
2018-05-18T06:21:51.973Z,24.90
2018-05-18T06:24:19.546Z,21.70
2018-05-18T06:26:47.195Z,22.70
2018-05-18T06:29:14.804Z,24.20
2018-05-18T06:31:42.383Z,24.00
2018-05-18T06:34:09.993Z,24.47
2018-05-18T06:36:37.622Z,28.30
2018-05-18T06:39:06.974Z,22.83
2018-05-18T06:41:34.583Z,23.03
2018-05-18T06:44:02.152Z,24.37
2018-05-18T06:46:29.760Z,22.43
2018-05-18T06:48:57.329Z,21.67
2018-05-18T06:51:24.905Z,21.90
2018-05-18T06:53:53.298Z,23.23
2018-05-18T06:56:20.920Z,23.73
2018-05-18T06:58:48.555Z,17.17
2018-05-18T07:01:16.928Z,18.23
2018-05-18T07:03:44.538Z,17.27
2018-05-18T07:06:12.108Z,17.20
2018-05-18T07:08:40.482Z,19.60
2018-05-18T07:11:08.810Z,16.07
2018-05-18T07:13:36.417Z,16.87
2018-05-18T07:16:04.041Z,16.53
2018-05-18T07:18:31.616Z,20.40
2018-05-18T07:20:59.212Z,15.17
2018-05-18T07:23:27.555Z,15.43
2018-05-18T07:25:55.227Z,16.10
2018-05-18T07:28:24.603Z,15.80
2018-05-18T07:30:52.214Z,15.97
2018-05-18T07:33:20.548Z,16.30
2018-05-18T07:35:48.201Z,16.83
2018-05-18T07:38:15.798Z,13.67
2018-05-18T07:40:43.368Z,16.53
2018-05-18T07:43:10.989Z,15.40
2018-05-18T07:45:38.577Z,16.27
2018-05-18T07:48:06.189Z,14.83
2018-05-18T07:50:33.764Z,15.63
2018-05-18T07:53:01.369Z,21.27
2018-05-18T07:55:29.961Z,19.17
2018-05-18T07:57:57.532Z,15.90
2018-05-18T08:00:25.884Z,16.30
2018-05-18T08:02:53.518Z,21.33
2018-05-18T08:05:21.094Z,22.73
2018-05-18T08:07:48.710Z,24.70
2018-05-18T08:10:17.065Z,26.87
2018-05-18T08:12:45.400Z,27.90
2018-05-18T08:15:13.028Z,28.37
2018-05-18T08:17:40.633Z,29.67
2018-05-18T08:20:08.216Z,31.17
2018-05-18T08:22:35.830Z,31.03
2018-05-18T08:25:03.458Z,30.67
2018-05-18T08:27:31.110Z,30.33
2018-05-18T08:29:58.679Z,33.63
2018-05-18T08:32:26.378Z,35.60
2018-05-18T08:34:53.965Z,34.77
2018-05-18T08:37:21.562Z,35.13
2018-05-18T08:39:49.950Z,32.97
2018-05-18T08:42:18.349Z,36.43
2018-05-18T08:44:45.923Z,34.07
2018-05-18T08:47:13.509Z,39.57
2018-05-18T08:49:41.127Z,37.83
2018-05-18T08:52:08.701Z,35.23
2018-05-18T08:54:36.300Z,37.10
2018-05-18T08:57:03.929Z,33.80
2018-05-18T08:59:31.552Z,36.30
2018-05-18T09:01:59.923Z,35.37
2018-05-18T09:04:27.537Z,35.83
2018-05-18T09:06:55.119Z,37.83
2018-05-18T09:09:22.733Z,35.20
2018-05-18T09:11:50.344Z,32.53
2018-05-18T09:14:17.913Z,33.53
2018-05-18T09:16:45.525Z,28.63
2018-05-18T09:19:13.113Z,30.63
2018-05-18T09:21:40.720Z,32.33
2018-05-18T09:24:09.154Z,35.83
2018-05-18T09:26:36.778Z,35.93
2018-05-18T09:29:04.351Z,35.33
2018-05-18T09:31:31.957Z,39.47
2018-05-18T09:33:59.544Z,33.70
2018-05-18T09:36:27.978Z,36.33
2018-05-18T09:38:55.565Z,38.63
2018-05-18T09:41:23.166Z,36.27
2018-05-18T09:43:50.790Z,41.30
2018-05-18T09:46:18.361Z,36.77
2018-05-18T09:48:45.974Z,40.50
2018-05-18T09:51:13.577Z,41.63
2018-05-18T09:53:41.186Z,41.27
2018-05-18T09:56:08.757Z,41.70
2018-05-18T09:58:36.362Z,40.47
2018-05-18T10:01:04.748Z,39.47
2018-05-18T10:03:32.321Z,41.77
2018-05-18T10:05:59.953Z,44.13
2018-05-18T10:08:27.527Z,40.93
2018-05-18T10:10:55.151Z,39.73
2018-05-18T10:13:22.722Z,37.33
2018-05-18T10:15:50.288Z,37.43
2018-05-18T10:18:17.905Z,30.53
2018-05-18T10:20:45.477Z,31.57
2018-05-18T10:23:13.089Z,38.93
2018-05-18T10:25:40.664Z,39.67
2018-05-18T10:28:08.278Z,37.63
2018-05-18T10:30:35.852Z,46.63
2018-05-18T10:33:03.469Z,40.23
2018-05-18T10:35:31.041Z,35.27
2018-05-18T10:37:58.654Z,37.10
2018-05-18T10:40:26.219Z,37.60
2018-05-18T10:42:53.815Z,41.47
2018-05-18T10:45:21.439Z,44.13
2018-05-18T10:47:49.021Z,44.40
2018-05-18T10:50:17.400Z,45.83
2018-05-18T10:52:45.930Z,45.10
2018-05-18T10:55:13.516Z,44.23
2018-05-18T10:57:41.099Z,45.07
2018-05-18T11:00:09.485Z,47.77
2018-05-18T11:02:37.861Z,47.27
2018-05-18T11:05:06.205Z,47.50
2018-05-18T11:07:33.835Z,45.60
2018-05-18T11:12:35.353Z,52.40
2018-05-18T11:15:02.973Z,54.83
2018-05-18T11:17:30.558Z,54.33
2018-05-18T11:19:58.180Z,54.13
2018-05-18T11:22:25.812Z,50.93
2018-05-18T11:24:53.376Z,51.83
2018-05-18T11:27:20.990Z,49.67
2018-05-18T11:29:48.566Z,51.93
2018-05-18T11:32:16.141Z,50.87
2018-05-18T11:34:43.761Z,51.23
2018-05-18T11:37:11.344Z,55.30
2018-05-18T11:39:38.953Z,58.23
2018-05-18T11:42:07.302Z,54.43
2018-05-18T11:44:34.923Z,54.13
2018-05-18T11:47:02.502Z,53.70
2018-05-18T11:49:30.074Z,49.53
2018-05-18T11:51:57.680Z,53.30
2018-05-18T11:54:25.292Z,54.93
2018-05-18T11:56:52.933Z,52.50
2018-05-18T11:59:20.520Z,53.43
2018-05-18T12:01:48.140Z,60.73
2018-05-18T12:04:15.748Z,61.77
2018-05-18T12:06:43.331Z,66.40
2018-05-18T12:09:10.942Z,72.43
2018-05-18T12:11:38.554Z,68.17
2018-05-18T12:14:06.174Z,90.53
2018-05-18T12:16:33.757Z,96.93
2018-05-18T12:19:01.334Z,98.70
2018-05-18T12:21:31.735Z,87.13
2018-05-18T12:23:59.347Z,78.00
2018-05-18T12:26:27.680Z,78.20
2018-05-18T12:28:55.254Z,81.33
2018-05-18T12:31:22.869Z,84.47
2018-05-18T12:33:50.485Z,86.07
2018-05-18T12:36:18.210Z,90.60
2018-05-18T12:38:45.829Z,85.07
2018-05-18T12:41:13.409Z,85.77
2018-05-18T12:43:40.989Z,87.03
2018-05-18T12:46:08.658Z,89.73
2018-05-18T12:48:36.316Z,100.50
2018-05-18T12:51:03.927Z,93.10
2018-05-18T12:53:31.498Z,91.43
2018-05-18T12:55:59.876Z,98.13
2018-05-18T12:58:28.220Z,100.13
2018-05-18T13:00:55.844Z,97.10
2018-05-18T13:03:23.431Z,95.00
2018-05-18T13:05:50.999Z,97.20
2018-05-18T13:08:18.628Z,96.50
2018-05-18T13:10:46.233Z,98.93
2018-05-18T13:13:13.798Z,95.20
2018-05-18T13:15:41.411Z,98.57
2018-05-18T13:18:09.025Z,99.73
2018-05-18T13:20:36.602Z,103.27
2018-05-18T13:23:04.989Z,102.33
2018-05-18T13:25:32.603Z,100.97
2018-05-18T13:28:00.179Z,106.83
2018-05-18T13:30:27.908Z,100.10
2018-05-18T13:32:56.117Z,103.33
2018-05-18T13:35:23.740Z,106.27
2018-05-18T13:37:51.362Z,106.23
2018-05-18T13:40:19.785Z,113.77
2018-05-18T13:42:47.390Z,116.50
2018-05-18T13:45:15.005Z,118.60
2018-05-18T13:47:42.615Z,116.60
2018-05-18T13:50:10.188Z,115.27
2018-05-18T13:52:38.616Z,121.77
2018-05-18T13:55:06.218Z,131.30
2018-05-18T13:57:33.835Z,132.93
2018-05-18T14:00:01.417Z,129.37
2018-05-18T14:02:29.027Z,127.13
2018-05-18T14:04:57.373Z,128.27
2018-05-18T14:07:25.011Z,134.93
2018-05-18T14:09:52.630Z,131.60
2018-05-18T14:12:20.983Z,132.43
2018-05-18T14:14:48.605Z,130.10
2018-05-18T14:17:16.623Z,127.53
2018-05-18T14:19:44.404Z,124.37
2018-05-18T14:22:11.981Z,123.93
2018-05-18T14:24:39.846Z,127.37
2018-05-18T14:27:07.435Z,127.63
2018-05-18T14:29:35.044Z,126.97
2018-05-18T14:32:03.428Z,126.57
2018-05-18T14:34:31.768Z,126.60
2018-05-18T14:36:59.448Z,126.30
2018-05-18T14:39:27.027Z,122.90
2018-05-18T14:41:55.410Z,117.53
2018-05-18T14:44:23.758Z,118.80
2018-05-18T14:46:51.440Z,121.73
2018-05-18T14:49:19.029Z,122.37
2018-05-18T14:51:46.664Z,128.00
2018-05-18T14:54:14.278Z,129.37
2018-05-18T14:56:41.861Z,130.57
2018-05-18T14:59:09.479Z,120.77
2018-05-18T15:01:37.064Z,119.90
2018-05-18T15:04:04.677Z,118.43
2018-05-18T15:06:33.021Z,120.30
2018-05-18T15:09:00.640Z,126.60
2018-05-18T15:11:28.222Z,130.40
2018-05-18T15:13:55.940Z,140.90
2018-05-18T15:16:23.546Z,129.70
2018-05-18T15:18:52.821Z,120.93
2018-05-18T15:21:21.195Z,106.80
2018-05-18T15:23:49.533Z,90.37
2018-05-18T15:26:17.141Z,87.77
2018-05-18T15:28:45.244Z,83.40
2018-05-18T15:31:13.674Z,89.43
2018-05-18T15:33:42.059Z,88.33
2018-05-18T15:36:10.404Z,95.33
2018-05-18T15:38:38.023Z,110.03
2018-05-18T15:41:05.606Z,108.60
2018-05-18T15:43:33.216Z,113.60
2018-05-18T15:46:00.822Z,96.97
2018-05-18T15:48:29.085Z,113.87
2018-05-18T15:50:56.878Z,112.50
2018-05-18T15:53:24.572Z,116.23
2018-05-18T15:55:52.334Z,113.63
2018-05-18T15:58:20.216Z,128.43
2018-05-18T16:00:47.861Z,131.10
2018-05-18T16:03:15.545Z,135.83
2018-05-18T16:05:43.935Z,129.00
2018-05-18T16:08:12.489Z,130.53
2018-05-18T16:10:40.429Z,136.47
2018-05-18T16:13:09.250Z,139.13
2018-05-18T16:15:37.305Z,145.83
2018-05-18T16:18:07.288Z,153.17
2018-05-18T16:20:35.445Z,166.30
2018-05-18T16:23:03.657Z,170.07
2018-05-18T16:25:31.943Z,176.87
2018-05-18T16:27:59.744Z,178.57
2018-05-18T16:30:27.492Z,179.50
2018-05-18T16:32:55.779Z,172.17
2018-05-18T16:35:24.615Z,173.90
2018-05-18T16:37:52.338Z,172.27
2018-05-18T16:40:21.036Z,172.03
2018-05-18T16:42:48.817Z,169.23
2018-05-18T16:45:16.526Z,172.17
2018-05-18T16:47:44.207Z,162.53
2018-05-18T16:50:13.243Z,167.67
2018-05-18T16:52:40.906Z,167.13
2018-05-18T16:55:08.643Z,166.60
2018-05-18T16:57:36.825Z,163.80
2018-05-18T17:00:04.437Z,157.10
2018-05-18T17:02:32.097Z,160.53
2018-05-18T17:05:00.273Z,165.90
2018-05-18T17:07:28.247Z,164.77
2018-05-18T17:09:57.109Z,153.33
2018-05-18T17:12:25.308Z,152.50
2018-05-18T17:14:55.346Z,152.67
2018-05-18T17:17:22.969Z,153.67
2018-05-18T17:19:50.602Z,160.87
2018-05-18T17:22:18.963Z,155.47
2018-05-18T17:24:46.572Z,145.67
2018-05-18T17:27:14.157Z,141.33
2018-05-18T17:29:41.771Z,138.53
2018-05-18T17:32:10.111Z,138.07
2018-05-18T17:34:37.761Z,149.27
2018-05-18T17:37:05.339Z,138.37
2018-05-18T17:39:32.917Z,127.30
2018-05-18T17:42:00.536Z,117.47
2018-05-18T17:44:28.302Z,116.00
2018-05-18T17:46:58.581Z,112.70
2018-05-18T17:49:28.223Z,113.70
2018-05-18T17:51:57.014Z,109.43
2018-05-18T17:54:24.985Z,112.50
2018-05-18T17:56:56.046Z,104.17
2018-05-18T17:59:23.693Z,105.27
2018-05-18T18:01:51.339Z,97.23
2018-05-18T18:04:19.046Z,93.93
2018-05-18T18:06:46.716Z,90.03
2018-05-18T18:09:14.320Z,91.57
2018-05-18T18:11:41.940Z,88.27
2018-05-18T18:14:09.574Z,88.93
2018-05-18T18:16:37.150Z,85.53
2018-05-18T18:19:04.728Z,84.70
2018-05-18T18:21:32.341Z,76.23
2018-05-18T18:23:59.921Z,74.37
2018-05-18T18:26:27.532Z,77.73
2018-05-18T18:28:55.909Z,71.30
2018-05-18T18:31:25.989Z,67.77
2018-05-18T18:33:56.607Z,68.47
2018-05-18T18:36:25.004Z,70.70
2018-05-18T18:38:54.004Z,69.73
2018-05-18T18:41:21.568Z,71.23
2018-05-18T18:43:49.133Z,71.80
2018-05-18T18:46:18.293Z,71.13
2018-05-18T18:48:45.947Z,95.83
2018-05-18T18:51:13.498Z,75.60
2018-05-18T18:53:41.065Z,75.30
2018-05-18T18:56:08.713Z,70.03
2018-05-18T18:58:37.043Z,77.63
2018-05-18T19:01:04.659Z,79.40
2018-05-18T19:03:32.232Z,86.37
2018-05-18T19:06:05.553Z,87.47
2018-05-18T19:08:33.150Z,84.47
2018-05-18T19:11:00.774Z,85.80
2018-05-18T19:13:28.383Z,79.70
2018-05-18T19:15:55.953Z,92.57
2018-05-18T19:18:23.553Z,86.37
2018-05-18T19:20:51.137Z,81.70
2018-05-18T19:23:18.747Z,81.90
2018-05-18T19:25:46.316Z,78.77
2018-05-18T19:28:13.925Z,82.80
2018-05-18T19:30:41.503Z,80.73
2018-05-18T19:33:09.117Z,76.70
2018-05-18T19:35:36.723Z,77.47
2018-05-18T19:38:04.294Z,79.47
2018-05-18T19:40:32.668Z,78.53
2018-05-18T19:43:00.237Z,79.57
2018-05-18T19:45:28.609Z,79.73
2018-05-18T19:47:56.970Z,79.47
2018-05-18T19:50:24.577Z,78.93
2018-05-18T19:52:52.149Z,82.90
2018-05-18T19:55:19.763Z,83.53
2018-05-18T19:57:47.393Z,80.43
2018-05-18T20:00:14.962Z,87.73
2018-05-18T20:02:42.611Z,79.70
2018-05-18T20:05:10.186Z,78.83
2018-05-18T20:07:37.841Z,82.23
2018-05-18T20:10:05.457Z,77.63
2018-05-18T20:12:33.024Z,82.60
2018-05-18T20:15:00.638Z,95.63
2018-05-18T20:17:28.208Z,95.70
2018-05-18T20:19:55.834Z,93.70
2018-05-18T20:22:23.415Z,88.47
2018-05-18T20:24:50.980Z,93.60
2018-05-18T20:27:18.592Z,86.63
2018-05-18T20:29:46.197Z,86.57
2018-05-18T20:32:13.804Z,82.53
2018-05-18T20:34:41.373Z,84.00
2018-05-18T20:37:08.980Z,87.03
2018-05-18T20:39:36.557Z,82.87
2018-05-18T20:42:04.164Z,82.70
2018-05-18T20:44:31.745Z,77.17
2018-05-18T20:46:59.363Z,80.33
2018-05-18T20:49:27.741Z,83.00
2018-05-18T20:51:56.072Z,74.93
2018-05-18T20:54:23.672Z,73.20
2018-05-18T20:56:51.288Z,74.00
2018-05-18T20:59:19.002Z,72.43
2018-05-18T21:01:46.946Z,71.13
2018-05-18T21:04:15.273Z,67.50
2018-05-18T21:06:43.932Z,66.00
2018-05-18T21:09:11.496Z,63.47
2018-05-18T21:11:39.417Z,76.27
2018-05-18T21:14:08.619Z,86.63
2018-05-18T21:16:36.300Z,54.80
2018-05-18T21:19:03.907Z,42.90
2018-05-18T21:21:32.572Z,46.47
2018-05-18T21:24:00.281Z,57.90
2018-05-18T21:26:28.448Z,61.63
2018-05-18T21:28:57.768Z,66.13
2018-05-18T21:31:26.721Z,73.63
2018-05-18T21:33:55.398Z,71.80
2018-05-18T21:36:25.268Z,58.40
2018-05-18T21:38:52.837Z,50.23
2018-05-18T21:41:21.901Z,47.90
2018-05-18T21:43:49.660Z,39.90
2018-05-18T21:46:17.567Z,37.53
2018-05-18T21:48:45.390Z,32.43
2018-05-18T21:51:13.067Z,32.73
2018-05-18T21:53:41.622Z,27.77
2018-05-18T21:56:09.270Z,26.00
2018-05-18T21:58:37.294Z,24.17
2018-05-18T22:01:04.908Z,19.93
2018-05-18T22:03:32.484Z,19.67
2018-05-18T22:06:00.101Z,20.83
2018-05-18T22:08:27.808Z,20.40
2018-05-18T22:10:55.446Z,23.33
2018-05-18T22:13:23.023Z,18.47
2018-05-18T22:15:51.361Z,20.90
2018-05-18T22:18:18.968Z,20.53
2018-05-18T22:20:47.021Z,20.50
2018-05-18T22:23:15.051Z,29.07
2018-05-18T22:25:42.727Z,34.73
2018-05-18T22:28:11.050Z,31.87
2018-05-18T22:30:38.671Z,27.80
2018-05-18T22:33:06.298Z,21.63
2018-05-18T22:35:33.872Z,17.33
2018-05-18T22:38:01.644Z,18.67
2018-05-18T22:40:29.580Z,19.17
2018-05-18T22:42:57.359Z,20.07
2018-05-18T22:45:25.001Z,19.30
2018-05-18T22:47:52.583Z,23.37
2018-05-18T22:50:24.169Z,31.33
2018-05-18T22:52:51.787Z,30.00
2018-05-18T22:55:19.401Z,32.03
2018-05-18T22:57:46.973Z,27.93
2018-05-18T23:00:29.327Z,23.80
2018-05-18T23:02:56.945Z,21.17
2018-05-18T23:05:24.580Z,25.87
2018-05-18T23:07:52.165Z,22.23
2018-05-18T23:10:19.745Z,28.33
2018-05-18T23:12:48.129Z,63.57
2018-05-18T23:15:16.516Z,92.87
2018-05-18T23:17:44.091Z,94.40
2018-05-18T23:20:11.667Z,64.57
2018-05-18T23:22:39.281Z,31.33
2018-05-18T23:25:06.852Z,24.90
2018-05-18T23:27:35.224Z,42.07
2018-05-18T23:30:02.807Z,56.80
2018-05-18T23:32:30.418Z,63.20
2018-05-18T23:34:57.989Z,54.43
2018-05-18T23:37:25.588Z,58.43
2018-05-18T23:39:53.738Z,45.17
2018-05-18T23:42:21.374Z,22.90
2018-05-18T23:44:48.945Z,23.30
2018-05-18T23:47:16.558Z,23.97
2018-05-18T23:49:44.133Z,23.03
2018-05-18T23:52:11.744Z,25.30
2018-05-18T23:54:40.111Z,20.90
2018-05-18T23:57:07.683Z,21.10
2018-05-18T23:59:35.301Z,23.93
